Time;durP1;ratioP1;P1;durP2;ratioP2;P2;SDS_P1;SDS_P2;PMS_P1;PMS_P2;Temp;Humidity;BMP_temperature;BMP_pressure;BME280_temperature;BME280_humidity;BME280_pressure;Samples;Min_cycle;Max_cycle;Signal;HPM_P1;HPM_P2
2023/01/28 00:01:14;;;;;;;233.20;214.77;;;;;;;-0.32;70.46;103019.78;5008426;28;20062;-72
2023/01/28 00:03:40;;;;;;;233.15;214.88;;;;;;;-0.36;69.73;103017.56;5001365;28;20037;-72
2023/01/28 00:06:09;;;;;;;233.32;214.73;;;;;;;-0.42;70.31;103013.69;5022534;28;20053;-71
2023/01/28 00:08:34;;;;;;;216.48;197.18;;;;;;;-0.51;71.34;103017.16;4988479;28;20045;-73
2023/01/28 00:11:01;;;;;;;213.50;194.70;;;;;;;-0.60;71.82;103010.13;5021293;28;20402;-72
2023/01/28 00:13:28;;;;;;;231.35;213.15;;;;;;;-0.68;73.64;103012.59;5005418;28;20037;-72
2023/01/28 00:15:59;;;;;;;212.25;193.63;;;;;;;-0.69;72.88;103016.22;5022799;28;20115;-71
2023/01/28 00:18:28;;;;;;;212.77;193.95;;;;;;;-0.49;72.07;103017.03;5019814;28;20038;-72
2023/01/28 00:21:06;;;;;;;213.15;194.20;;;;;;;-0.42;69.15;103021.59;5022272;28;20494;-73
2023/01/28 00:23:36;;;;;;;234.18;215.77;;;;;;;-0.29;68.74;103026.56;5019857;28;20072;-73
2023/01/28 00:26:07;;;;;;;213.85;194.82;;;;;;;-0.28;68.10;103022.94;5004419;28;20060;-72
2023/01/28 00:28:33;;;;;;;214.63;195.82;;;;;;;-0.30;69.58;103022.25;5021161;28;20041;-72
2023/01/28 00:31:05;;;;;;;213.32;194.45;;;;;;;-0.38;70.26;103019.50;5021412;28;20037;-74
2023/01/28 00:33:32;;;;;;;213.10;194.30;;;;;;;-0.42;71.64;103029.47;5040025;28;20510;-73
2023/01/28 00:35:59;;;;;;;232.13;213.95;;;;;;;-0.48;71.38;103024.78;5008598;28;20033;-73
2023/01/28 00:38:26;;;;;;;213.82;194.90;;;;;;;-0.50;71.11;103023.25;4990745;28;20042;-72
2023/01/28 00:40:52;;;;;;;211.85;193.18;;;;;;;-0.58;72.25;103026.59;5020998;28;20182;-73
2023/01/28 00:43:18;;;;;;;232.82;214.50;;;;;;;-0.56;72.10;103027.28;4988245;28;20045;-74
2023/01/28 00:45:43;;;;;;;234.80;216.30;;;;;;;-0.55;71.98;103021.88;5001048;28;20052;-72
2023/01/28 00:48:09;;;;;;;233.55;215.18;;;;;;;-0.59;71.62;103017.88;4999253;28;20030;-73
2023/01/28 00:50:34;;;;;;;233.32;214.80;;;;;;;-0.57;72.14;103015.94;5019593;28;20075;-73
2023/01/28 00:53:00;;;;;;;212.60;193.65;;;;;;;-0.53;71.72;103013.84;5012431;28;20037;-73
2023/01/28 00:55:27;;;;;;;212.23;193.43;;;;;;;-0.57;72.25;103009.84;5004933;28;20508;-73
2023/01/28 00:57:53;;;;;;;214.23;195.32;;;;;;;-0.56;72.12;103016.75;5020052;28;20528;-73
2023/01/28 01:00:24;;;;;;;212.68;193.90;;;;;;;-0.56;72.68;103022.03;5023132;28;20065;-73
2023/01/28 01:02:50;;;;;;;235.35;216.88;;;;;;;-0.55;72.72;103015.78;5008730;28;20038;-73
2023/01/28 01:05:17;;;;;;;232.18;213.68;;;;;;;-0.58;73.00;103018.72;4990190;28;20044;-72
2023/01/28 01:07:43;;;;;;;234.15;215.90;;;;;;;-0.58;73.29;103016.06;5021970;28;20854;-72
2023/01/28 01:10:17;;;;;;;233.20;214.90;;;;;;;-0.40;70.27;103022.28;5005369;28;20041;-73
2023/01/28 01:12:46;;;;;;;215.05;196.18;;;;;;;-0.40;69.83;103022.28;5021890;28;20171;-73
2023/01/28 01:15:12;;;;;;;214.20;195.23;;;;;;;-0.42;69.02;103018.13;5022619;28;20048;-72
2023/01/28 01:17:39;;;;;;;233.48;215.10;;;;;;;-0.41;69.43;103012.72;5000485;28;20090;-73
2023/01/28 01:20:11;;;;;;;233.10;214.70;;;;;;;-0.23;66.00;103009.34;5018949;28;20033;-73
2023/01/28 01:22:39;;;;;;;232.02;213.77;;;;;;;-0.23;66.83;103017.25;5040409;28;20041;-73
2023/01/28 01:25:05;;;;;;;233.93;215.32;;;;;;;-0.21;66.31;103012.66;5006957;28;20076;-73
2023/01/28 01:27:31;;;;;;;213.30;194.52;;;;;;;-0.28;66.19;103017.66;5022966;28;20038;-73
2023/01/28 01:30:00;;;;;;;212.75;194.07;;;;;;;-0.38;67.78;103020.34;5013815;28;20033;-74
2023/01/28 01:32:30;;;;;;;211.75;192.98;;;;;;;-0.42;68.02;103018.94;5020001;28;20065;-71
2023/01/28 01:34:56;;;;;;;;;;;;;;;-0.44;67.37;103015.63;5003203;28;20064;-73
2023/01/28 01:37:23;;;;;;;227.60;208.90;;;;;;;-0.29;66.85;103006.31;5023727;28;19918;-72
2023/01/28 01:39:49;;;;;;;235.32;216.93;;;;;;;-0.32;65.66;103014.50;5022035;28;20175;-73
2023/01/28 01:42:15;;;;;;;231.77;213.52;;;;;;;-0.35;67.00;103022.69;5026361;28;20074;-74
2023/01/28 01:45:02;;;;;;;215.70;196.70;;;;;;;0.20;62.11;103017.53;5037495;28;20086;-74
2023/01/28 01:47:44;;;;;;;213.00;194.25;;;;;;;0.01;63.27;103009.72;5002671;28;20038;-74
2023/01/28 01:50:22;;;;;;;215.18;196.23;;;;;;;-0.09;63.76;102998.34;5022796;28;20568;-73
2023/01/28 01:52:51;;;;;;;233.32;215.05;;;;;;;-0.12;64.20;103007.38;5005245;28;20048;-73
2023/01/28 01:55:24;;;;;;;213.27;194.38;;;;;;;-0.26;64.71;103002.59;5003266;28;20033;-74
2023/01/28 01:57:50;;;;;;;;;;;;;;;-0.24;65.59;103010.34;5017579;28;20433;-73
2023/01/28 02:00:17;;;;;;;228.23;209.52;;;;;;;-0.32;67.09;103014.50;5007389;28;19917;-72
2023/01/28 02:02:48;;;;;;;218.95;199.88;;;;;;;-0.33;68.33;103012.84;5001126;28;20046;-74
2023/01/28 02:05:18;;;;;;;234.20;215.75;;;;;;;-0.35;68.90;103016.59;5021383;28;20040;-74
2023/01/28 02:07:45;;;;;;;215.15;196.25;;;;;;;-0.40;70.34;103006.50;5021060;28;20064;-73
2023/01/28 02:10:13;;;;;;;234.32;215.73;;;;;;;-0.40;70.91;103006.50;5007992;28;20044;-73
2023/01/28 02:12:43;;;;;;;213.63;194.70;;;;;;;-0.44;70.23;103004.28;4994004;28;20523;-73
2023/01/28 02:15:10;;;;;;;;;;;;;;;-0.55;70.82;103003.44;5021824;28;20030;-73
2023/01/28 02:17:37;;;;;;;221.82;203.05;;;;;;;-0.51;71.48;103005.81;5038966;28;19913;-71
2023/01/28 02:20:10;;;;;;;227.68;209.07;;;;;;;-0.56;70.74;103011.50;5022607;28;20433;-70
2023/01/28 02:23:17;;;;;;;231.95;213.75;;;;;;;-0.64;71.10;103009.56;5019305;28;20033;-72
2023/01/28 02:26:02;;;;;;;217.70;198.60;;;;;;;-0.77;72.21;103013.44;5025911;28;20044;-71
2023/01/28 02:28:41;;;;;;;232.23;213.90;;;;;;;-0.83;73.58;103010.41;5016817;28;20045;-72
2023/01/28 02:31:14;;;;;;;213.83;194.93;;;;;;;-0.85;73.27;103009.72;5004792;28;20474;-75
2023/01/28 02:33:59;;;;;;;232.50;214.27;;;;;;;-0.86;74.19;103004.59;5016398;28;20068;-72
2023/01/28 02:36:47;;;;;;;231.20;213.10;;;;;;;-0.83;72.44;103014.84;5005656;28;20045;-76
2023/01/28 02:39:27;;;;;;;214.30;195.30;;;;;;;-0.82;71.17;103001.53;4999818;28;20057;-72
2023/01/28 02:42:03;;;;;;;232.65;214.40;;;;;;;-0.93;72.13;103004.31;5003540;28;20050;-72
2023/01/28 02:44:29;;;;;;;233.00;214.55;;;;;;;-1.03;72.16;103003.47;5037651;28;20494;-73
2023/01/28 02:49:38;;;;;;;213.73;194.73;;;;;;;-1.12;73.41;103005.13;5020469;28;20045;-72
2023/01/28 02:55:57;;;;;;;218.88;199.77;;;;;;;-1.00;71.49;103008.47;5001820;28;20510;-72
2023/01/28 02:58:41;;;;;;;225.70;206.85;;;;;;;-1.05;72.64;103002.78;5018375;28;20057;-72
2023/01/28 03:01:15;;;;;;;220.52;201.60;;;;;;;-1.07;73.20;103001.28;5035598;28;20495;-73
2023/01/28 03:03:44;;;;;;;233.18;215.00;;;;;;;-1.14;71.89;103001.81;4990474;28;20033;-73
2023/01/28 03:06:14;;;;;;;232.07;213.77;;;;;;;-1.16;71.23;103005.53;5003584;28;20407;-74
2023/01/28 03:37:13;;;;;;;228.63;209.98;;;;;;;-0.74;68.09;102986.88;5019796;28;20038;-73
2023/01/28 03:39:44;;;;;;;218.10;199.00;;;;;;;-0.77;69.22;102997.66;5048360;28;20017;-70
2023/01/28 03:42:13;;;;;;;231.40;212.77;;;;;;;-0.85;70.20;102999.19;4988870;28;20041;-73
2023/01/28 03:44:56;;;;;;;233.57;215.02;;;;;;;-0.86;70.07;103008.06;5022429;28;20631;-73
2023/01/28 03:47:25;;;;;;;216.15;197.23;;;;;;;-0.98;72.88;103006.53;5004376;28;20041;-74
2023/01/28 03:49:54;;;;;;;217.40;198.35;;;;;;;-1.04;72.96;102996.56;5008042;28;20040;-72
2023/01/28 03:52:24;;;;;;;230.45;212.35;;;;;;;-1.13;73.09;103005.28;5004793;28;20050;-72
2023/01/28 03:54:51;;;;;;;234.60;216.10;;;;;;;-1.15;72.85;103009.84;5017406;28;20049;-73
2023/01/28 03:57:22;;;;;;;230.32;212.02;;;;;;;-1.17;73.64;103004.72;5000838;28;20090;-72
2023/01/28 03:59:48;;;;;;;231.93;213.52;;;;;;;-1.14;73.62;103004.44;5021573;28;20271;-74
2023/01/28 04:02:16;;;;;;;230.75;212.43;;;;;;;-1.17;72.75;103004.72;4989005;28;20392;-73
2023/01/28 04:04:42;;;;;;;212.75;193.90;;;;;;;-1.15;72.94;103009.84;5019048;28;20135;-73
2023/01/28 04:07:09;;;;;;;212.50;193.82;;;;;;;-1.18;71.87;103012.75;5001201;28;20033;-72
2023/01/28 04:10:01;;;;;;;215.40;196.68;;;;;;;-1.18;73.68;103010.09;5034583;28;20672;-73
2023/01/28 04:12:48;;;;;;;231.57;213.25;;;;;;;-1.21;75.20;102999.88;5006614;28;20030;-73
2023/01/28 04:15:15;;;;;;;215.30;196.65;;;;;;;-1.21;75.08;103011.22;4987651;28;20132;-72
2023/01/28 04:17:46;;;;;;;232.45;213.98;;;;;;;-1.23;75.02;103012.31;5006972;28;20032;-73
2023/01/28 04:20:18;;;;;;;232.50;214.27;;;;;;;-1.25;74.88;103014.25;5021998;28;20425;-72
2023/01/28 04:22:44;;;;;;;233.27;214.68;;;;;;;-1.26;74.98;103012.59;5006994;28;20067;-72
2023/01/28 04:25:11;;;;;;;231.63;213.45;;;;;;;-1.27;74.80;103000.41;5003449;28;20498;-73
2023/01/28 04:27:37;;;;;;;214.02;194.93;;;;;;;-1.27;74.45;103003.06;5025797;28;20041;-74
2023/01/28 04:30:12;;;;;;;214.43;195.23;;;;;;;-1.35;75.00;102993.22;5006660;28;20066;-73
2023/01/28 04:32:41;;;;;;;231.73;213.38;;;;;;;-1.44;75.64;103001.91;5022178;28;20037;-74
2023/01/28 04:35:23;;;;;;;219.63;200.43;;;;;;;-1.54;76.17;102988.75;5028412;28;20486;-72
2023/01/28 04:38:21;;;;;;;226.65;207.95;;;;;;;-1.63;77.08;102994.78;5007748;28;20064;-73
2023/01/28 04:41:03;;;;;;;215.98;196.85;;;;;;;-1.79;76.27;102992.69;5035397;28;20041;-73
2023/01/28 04:43:32;;;;;;;213.13;194.30;;;;;;;-1.93;76.57;102999.13;5008312;28;20053;-73
2023/01/28 04:46:17;;;;;;;231.63;213.38;;;;;;;-2.03;76.79;103000.03;5020243;28;20065;-73
2023/01/28 04:49:12;;;;;;;225.63;206.23;;;;;;;-2.15;77.10;102993.22;5012857;28;20029;-72
2023/01/28 04:51:44;;;;;;;229.32;210.52;;;;;;;-2.26;78.60;102996.75;5020770;28;20037;-72
2023/01/28 04:54:22;;;;;;;220.63;201.82;;;;;;;-2.31;79.17;103004.16;5017705;28;20110;-72
2023/01/28 04:56:48;;;;;;;219.10;200.07;;;;;;;-2.33;79.70;103008.72;5017317;28;20065;-73
2023/01/28 04:59:14;;;;;;;226.32;207.45;;;;;;;-2.30;79.59;103006.69;5018876;28;20041;-73
2023/01/28 05:01:40;;;;;;;221.05;201.85;;;;;;;-2.27;79.39;103010.84;4990065;28;20053;-73
2023/01/28 05:04:06;;;;;;;227.43;208.60;;;;;;;-2.24;78.86;103000.06;5003620;28;20395;-73
2023/01/28 05:06:36;;;;;;;222.68;203.75;;;;;;;-2.18;78.58;103012.69;5006897;28;20731;-74
2023/01/28 05:09:07;;;;;;;228.35;209.48;;;;;;;-2.12;78.96;103006.91;5025890;28;20037;-74
2023/01/28 05:11:33;;;;;;;229.05;210.07;;;;;;;-2.07;78.97;103004.72;5004604;28;20037;-73
2023/01/28 05:14:02;;;;;;;226.98;207.95;;;;;;;-2.01;79.05;103006.84;5016623;28;20048;-74
2023/01/28 05:16:34;;;;;;;231.85;213.23;;;;;;;-2.01;79.28;103012.09;5017980;28;20069;-72
2023/01/28 05:19:01;;;;;;;223.63;204.50;;;;;;;-2.03;79.39;103003.50;5019080;28;20036;-74
2023/01/28 05:21:33;;;;;;;230.80;212.30;;;;;;;-2.04;79.08;103001.00;5018442;28;20094;-74
2023/01/28 05:24:02;;;;;;;227.52;208.70;;;;;;;-2.09;78.81;102992.72;5008147;28;20040;-74
2023/01/28 05:26:28;;;;;;;230.68;212.15;;;;;;;-2.19;79.17;102992.63;5004065;28;20045;-72
2023/01/28 05:28:54;;;;;;;222.35;203.32;;;;;;;-2.25;78.59;102991.34;5018550;28;20116;-73
2023/01/28 05:31:19;;;;;;;223.20;204.25;;;;;;;-2.33;78.99;102985.09;5005390;28;20120;-73
2023/01/28 05:33:45;;;;;;;227.20;208.32;;;;;;;-2.40;79.74;102978.72;5021078;28;20037;-73
2023/01/28 05:36:12;;;;;;;229.70;211.02;;;;;;;-2.41;79.64;102984.94;5040853;28;20041;-72
2023/01/28 05:38:38;;;;;;;223.88;204.80;;;;;;;-2.53;79.73;102971.03;5022586;28;20128;-73
2023/01/28 05:41:04;;;;;;;228.82;209.73;;;;;;;-2.69;79.89;102970.66;4991442;28;20152;-73
2023/01/28 05:43:31;;;;;;;221.25;202.15;;;;;;;-2.84;81.12;102973.59;5023117;28;20844;-72
2023/01/28 05:46:11;;;;;;;227.27;208.38;;;;;;;-2.95;81.50;102967.56;5029091;28;20051;-72
2023/01/28 05:49:15;;;;;;;228.93;209.93;;;;;;;-3.00;81.98;102980.22;4923605;29;20043;-76
2023/01/28 05:51:47;;;;;;;225.90;206.95;;;;;;;-3.05;81.73;102976.22;4925466;29;20088;-73
2023/01/28 05:54:16;;;;;;;228.63;209.82;;;;;;;-3.14;81.66;102969.06;4967885;28;20087;-74
2023/01/28 05:56:41;;;;;;;220.80;201.93;;;;;;;-3.11;81.97;102978.50;4991551;28;20034;-74
2023/01/28 05:59:10;;;;;;;228.75;209.50;;;;;;;-3.08;82.34;102986.94;5023591;28;20037;-74
2023/01/28 06:01:38;;;;;;;228.07;209.48;;;;;;;-3.05;82.64;102981.44;5004877;28;20042;-73
2023/01/28 06:04:07;;;;;;;221.40;202.25;;;;;;;-3.04;82.80;102985.72;5018343;28;20040;-74
2023/01/28 06:06:32;;;;;;;221.00;202.00;;;;;;;-3.03;82.88;102966.41;5004432;28;20487;-74
2023/01/28 06:08:59;;;;;;;222.95;203.80;;;;;;;-3.11;82.25;102973.25;5021790;28;20043;-73
2023/01/28 06:11:28;;;;;;;221.40;202.35;;;;;;;-3.24;82.09;102978.66;5002650;28;20063;-74
2023/01/28 06:13:58;;;;;;;227.63;208.75;;;;;;;-3.34;82.48;102983.78;5023612;28;20037;-74
2023/01/28 06:16:23;;;;;;;228.75;210.02;;;;;;;-3.31;82.70;102987.97;5009299;28;20409;-72
2023/01/28 06:18:58;;;;;;;221.85;202.70;;;;;;;-3.32;82.63;102988.91;4992256;28;20037;-74
2023/01/28 06:21:24;;;;;;;228.30;209.50;;;;;;;-3.22;82.68;102976.72;5021981;28;20113;-73
2023/01/28 06:23:49;;;;;;;227.02;208.43;;;;;;;-3.22;82.88;102976.72;5001118;28;20038;-73
2023/01/28 06:26:15;;;;;;;221.85;202.55;;;;;;;-3.17;82.34;102974.56;5001333;28;20047;-73
2023/01/28 06:28:43;;;;;;;227.93;209.13;;;;;;;-3.17;82.32;102964.09;4988294;28;20217;-73
2023/01/28 06:31:08;;;;;;;221.95;202.77;;;;;;;-3.15;81.60;102969.19;5002826;28;20053;-74
2023/01/28 06:33:34;;;;;;;230.40;211.50;;;;;;;-3.17;82.17;102974.56;5022674;28;20040;-74
2023/01/28 06:36:05;;;;;;;230.45;211.18;;;;;;;-3.15;82.24;102967.41;5004594;28;20075;-73
2023/01/28 06:38:31;;;;;;;229.00;210.20;;;;;;;-3.07;81.82;102965.00;5024540;28;20664;-73
2023/01/28 06:40:57;;;;;;;228.95;210.20;;;;;;;-3.05;81.04;102975.34;5006979;28;20041;-73
2023/01/28 06:43:27;;;;;;;228.63;209.73;;;;;;;-3.09;81.36;102979.19;5004875;28;20060;-73
2023/01/28 06:45:53;;;;;;;228.13;209.33;;;;;;;-3.07;81.84;102972.84;5024558;28;20080;-73
2023/01/28 06:48:19;;;;;;;222.82;203.43;;;;;;;-3.06;81.70;102964.03;5004340;28;20074;-71
2023/01/28 06:50:47;;;;;;;220.18;201.02;;;;;;;-3.09;81.89;102951.19;5020094;28;20404;-73
2023/01/28 06:53:13;;;;;;;231.10;212.20;;;;;;;-3.04;82.40;102943.78;5010617;28;20030;-72
2023/01/28 06:55:38;;;;;;;220.68;201.48;;;;;;;-3.23;82.05;102967.22;5003602;28;20048;-73
2023/01/28 06:58:04;;;;;;;225.02;205.90;;;;;;;-3.38;83.02;102971.06;5006909;28;20414;-73
2023/01/28 07:00:30;;;;;;;228.52;209.80;;;;;;;-3.50;83.38;102982.53;5007153;28;20033;-74
2023/01/28 07:02:56;;;;;;;230.45;211.63;;;;;;;-3.61;83.36;102986.81;5016225;28;20044;-74
2023/01/28 07:05:22;;;;;;;232.00;213.27;;;;;;;-3.63;83.87;102999.22;4990309;28;20124;-75
2023/01/28 07:07:48;;;;;;;222.43;203.07;;;;;;;-3.71;83.60;103006.00;4991633;28;20033;-75
2023/01/28 07:10:13;;;;;;;230.63;211.82;;;;;;;-3.64;84.71;103002.78;5006306;28;20044;-74
2023/01/28 07:12:42;;;;;;;232.77;213.88;;;;;;;-3.76;84.09;103014.22;5022882;28;20030;-75
2023/01/28 07:15:09;;;;;;;223.82;204.65;;;;;;;-3.83;83.84;103026.13;5016796;28;20406;-74
2023/01/28 07:17:40;;;;;;;229.60;210.85;;;;;;;-3.84;84.35;103027.09;5005320;28;20040;-73
2023/01/28 07:20:07;;;;;;;226.75;207.98;;;;;;;-3.84;84.39;103032.31;5002974;28;20033;-73
2023/01/28 07:22:32;;;;;;;221.38;202.38;;;;;;;-3.87;84.68;103046.47;4989174;28;20510;-73
2023/01/28 07:25:00;;;;;;;224.93;205.88;;;;;;;-3.82;85.18;103043.50;5020989;28;20033;-74
2023/01/28 07:27:26;;;;;;;230.82;211.65;;;;;;;-3.69;84.72;103046.81;5019833;28;20034;-74
2023/01/28 07:29:51;;;;;;;225.43;206.25;;;;;;;-3.65;84.43;103037.78;5036033;28;20037;-74
2023/01/28 07:32:17;;;;;;;231.38;212.23;;;;;;;-3.58;84.35;103054.69;5021678;28;20495;-74
2023/01/28 07:34:43;;;;;;;235.13;216.02;;;;;;;-3.60;84.59;103061.81;5021608;28;20037;-74
2023/01/28 07:37:09;;;;;;;232.88;213.82;;;;;;;-3.57;84.42;103066.00;5025070;28;20037;-74
2023/01/28 07:39:35;;;;;;;225.05;205.85;;;;;;;-3.37;84.13;103056.59;4995678;28;20033;-75
2023/01/28 07:42:01;;;;;;;220.90;201.52;;;;;;;-3.38;84.08;103033.97;5045012;28;20054;-74
2023/01/28 07:44:45;;;;;;;225.88;206.75;;;;;;;-3.35;83.40;103038.94;4993658;28;20195;-75
2023/01/28 07:47:11;;;;;;;227.80;208.52;;;;;;;-3.50;83.87;103055.88;5020535;28;20570;-74
2023/01/28 07:49:38;;;;;;;230.93;212.13;;;;;;;-3.55;83.87;103055.41;4989479;28;20088;-74
2023/01/28 07:52:05;;;;;;;225.15;205.95;;;;;;;-3.62;83.69;103055.03;5017530;28;20052;-75
2023/01/28 07:54:31;;;;;;;233.48;214.48;;;;;;;-3.64;84.20;103062.19;5018232;28;20064;-73
2023/01/28 07:56:56;;;;;;;230.68;211.88;;;;;;;-3.60;84.21;103055.75;5004458;28;20475;-75
2023/01/28 07:59:22;;;;;;;222.52;203.48;;;;;;;-3.52;84.10;103058.63;4988722;28;20045;-75
2023/01/28 08:01:47;;;;;;;230.45;211.65;;;;;;;-3.52;83.85;103052.53;5023659;28;20037;-73
2023/01/28 08:04:13;;;;;;;229.10;209.95;;;;;;;-3.59;83.58;103047.78;5007252;28;20487;-74
2023/01/28 08:06:39;;;;;;;224.63;205.25;;;;;;;-3.66;83.55;103070.19;5011857;28;20116;-74
2023/01/28 08:09:06;;;;;;;224.40;205.20;;;;;;;-3.63;84.17;103072.53;4991099;28;20104;-73
2023/01/28 08:11:33;;;;;;;233.38;214.38;;;;;;;-3.63;84.01;103079.56;4998228;28;20029;-73
2023/01/28 08:13:59;;;;;;;235.43;216.35;;;;;;;-3.58;83.95;103080.88;5000865;28;20090;-73
2023/01/28 08:16:27;;;;;;;233.93;214.65;;;;;;;-3.57;84.02;103079.09;5010303;28;20059;-75
2023/01/28 08:18:53;;;;;;;233.23;214.15;;;;;;;-3.51;83.90;103083.03;4993199;28;20041;-72
2023/01/28 08:21:18;;;;;;;225.50;206.00;;;;;;;-3.48;83.44;103072.31;5005701;28;20038;-74
2023/01/28 08:23:44;;;;;;;224.63;205.07;;;;;;;-3.46;83.38;103068.59;5025236;28;20056;-73
2023/01/28 08:26:09;;;;;;;236.82;217.63;;;;;;;-3.45;83.68;103065.03;4992252;28;20037;-74
2023/01/28 08:28:35;;;;;;;227.25;207.82;;;;;;;-3.42;83.54;103074.44;5026423;28;20049;-75
2023/01/28 08:31:01;;;;;;;231.48;212.50;;;;;;;-2.92;82.43;103069.56;5001925;28;20056;-72
2023/01/28 08:33:27;;;;;;;223.38;203.65;;;;;;;-3.13;82.99;103083.44;5007224;28;20037;-74
2023/01/28 08:35:52;;;;;;;237.07;217.82;;;;;;;-2.98;82.40;103070.06;4995026;28;20104;-72
2023/01/28 08:38:19;;;;;;;238.57;219.23;;;;;;;-2.79;81.82;103083.34;5023763;28;20037;-75
2023/01/28 08:40:46;;;;;;;234.65;215.27;;;;;;;-2.69;82.29;103083.47;5022420;28;20675;-72
2023/01/28 08:43:11;;;;;;;229.15;209.48;;;;;;;-2.52;81.37;103081.09;5014725;28;20541;-75
2023/01/28 08:45:39;;;;;;;235.25;215.75;;;;;;;-2.12;80.15;103076.97;5026093;28;20029;-75
2023/01/28 08:48:07;;;;;;;236.93;217.57;;;;;;;-1.97;78.93;103081.75;5011948;28;20108;-75
2023/01/28 08:50:36;;;;;;;226.85;206.65;;;;;;;-1.77;77.71;103076.59;5023383;28;20032;-75
2023/01/28 08:53:09;;;;;;;229.00;208.85;;;;;;;-1.46;76.87;103072.19;4991541;28;20042;-74
2023/01/28 08:55:35;;;;;;;227.00;207.32;;;;;;;-1.42;76.80;103066.53;5007763;28;20037;-73
2023/01/28 08:58:05;;;;;;;228.82;209.27;;;;;;;-1.24;76.44;103079.00;5006091;28;20033;-74
2023/01/28 09:00:32;;;;;;;232.43;213.05;;;;;;;-1.13;75.42;103076.28;5006070;28;20083;-72
2023/01/28 09:02:57;;;;;;;229.18;209.55;;;;;;;-1.22;76.13;103085.81;5007927;28;20127;-74
2023/01/28 09:05:23;;;;;;;230.93;210.93;;;;;;;-1.28;75.92;103094.25;5025919;28;20572;-73
2023/01/28 09:07:49;;;;;;;234.98;215.80;;;;;;;-1.38;75.70;103096.81;5024998;28;20049;-73
2023/01/28 09:10:16;;;;;;;230.75;211.00;;;;;;;-1.63;77.23;103105.16;5007421;28;20043;-73
2023/01/28 09:12:42;;;;;;;237.23;217.73;;;;;;;-1.66;77.17;103106.25;5026390;28;20174;-73
2023/01/28 09:15:09;;;;;;;228.32;208.32;;;;;;;-1.79;77.98;103104.81;5009211;28;20033;-73
2023/01/28 09:17:35;;;;;;;228.75;208.95;;;;;;;-1.87;77.93;103113.34;5010973;28;20033;-73
2023/01/28 09:20:01;;;;;;;230.57;210.88;;;;;;;-1.94;78.72;103118.28;5012015;28;20187;-74
2023/01/28 09:22:27;;;;;;;236.88;217.52;;;;;;;-1.84;77.89;103123.56;5023919;28;20038;-74
2023/01/28 09:24:53;;;;;;;235.38;215.68;;;;;;;-1.89;77.90;103132.81;5006780;28;20029;-74
2023/01/28 09:27:18;;;;;;;239.25;219.50;;;;;;;-1.90;78.60;103128.50;5006796;28;20056;-72
2023/01/28 09:29:44;;;;;;;231.60;211.45;;;;;;;-1.79;78.01;103126.66;4989059;28;20514;-74
2023/01/28 09:32:10;;;;;;;237.18;217.20;;;;;;;-1.72;77.90;103132.22;5023780;28;20040;-74
2023/01/28 09:34:36;;;;;;;233.38;213.38;;;;;;;-1.48;77.30;103134.56;5025705;28;20044;-74
2023/01/28 09:37:02;;;;;;;234.10;214.73;;;;;;;-1.36;76.85;103136.09;5014098;28;20765;-74
2023/01/28 09:39:28;;;;;;;231.52;211.52;;;;;;;-1.00;75.45;103136.53;5029332;28;20124;-74
2023/01/28 09:42:12;;;;;;;232.80;213.10;;;;;;;-0.84;74.31;103134.19;5030814;28;20449;-72
2023/01/28 09:45:06;;;;;;;230.82;210.70;;;;;;;-0.73;72.61;103143.78;4994976;28;20037;-72
2023/01/28 09:47:40;;;;;;;232.13;212.43;;;;;;;-0.70;73.00;103146.13;5002598;28;20030;-73
2023/01/28 09:50:22;;;;;;;236.25;216.68;;;;;;;-0.48;70.93;103140.59;5025768;28;20037;-73
2023/01/28 09:52:50;;;;;;;236.25;216.25;;;;;;;-0.32;70.98;103142.69;5038921;28;20037;-74
2023/01/28 09:55:28;;;;;;;236.45;216.73;;;;;;;-0.15;68.09;103125.34;4992379;28;20033;-72
2023/01/28 09:57:55;;;;;;;234.10;214.75;;;;;;;-0.17;68.89;103140.47;5021019;28;20120;-74
2023/01/28 10:00:54;;;;;;;228.07;208.43;;;;;;;-0.07;66.83;103128.97;4991199;28;20044;-73
2023/01/28 10:03:35;;;;;;;237.50;217.63;;;;;;;-0.06;67.46;103114.00;5020410;28;20160;-74
2023/01/28 10:06:18;;;;;;;232.55;213.35;;;;;;;-0.05;66.04;103111.22;4991331;28;20041;-72
2023/01/28 10:09:12;;;;;;;235.30;215.68;;;;;;;-0.03;66.20;103109.25;5025409;28;20538;-73
2023/01/28 10:11:53;;;;;;;228.75;208.93;;;;;;;-0.18;65.45;103110.66;4994468;28;20072;-73
2023/01/28 10:14:41;;;;;;;234.15;213.60;;;;;;;-0.14;67.75;103095.41;5019905;28;20044;-73
2023/01/28 10:17:12;;;;;;;229.93;210.25;;;;;;;0.00;65.44;103089.72;5023059;28;20028;-72
2023/01/28 10:19:46;;;;;;;229.73;209.95;;;;;;;-0.02;65.52;103084.56;4989375;28;20398;-73
2023/01/28 10:22:26;;;;;;;237.85;218.05;;;;;;;0.19;65.33;103099.34;5019351;28;20038;-73
2023/01/28 10:24:57;;;;;;;231.32;211.63;;;;;;;0.23;65.07;103093.66;5002856;28;20124;-74
2023/01/28 10:27:29;;;;;;;230.32;210.70;;;;;;;0.42;65.40;103091.94;5020832;28;20127;-74
2023/01/28 10:29:56;;;;;;;231.48;211.60;;;;;;;0.54;64.50;103085.47;5009593;28;20037;-73
2023/01/28 10:32:30;;;;;;;241.25;221.40;;;;;;;0.41;65.35;103080.56;5023883;28;20041;-72
2023/01/28 10:35:02;;;;;;;236.23;216.77;;;;;;;0.86;64.19;103078.94;5024314;28;20041;-72
2023/01/28 10:37:32;;;;;;;227.68;207.85;;;;;;;0.90;62.06;103075.88;5022382;28;20082;-73
2023/01/28 10:39:59;;;;;;;230.15;210.50;;;;;;;0.99;62.16;103066.22;5007486;28;20445;-72
2023/01/28 10:42:30;;;;;;;227.82;208.27;;;;;;;1.12;61.54;103079.88;4989239;28;20144;-72
2023/01/28 10:45:00;;;;;;;228.60;208.68;;;;;;;1.41;61.56;103073.53;5022083;28;20053;-71
2023/01/28 10:47:37;;;;;;;235.45;215.63;;;;;;;1.46;60.92;103058.06;5037875;28;20060;-73
2023/01/28 10:50:04;;;;;;;227.23;207.48;;;;;;;1.67;59.43;103053.28;5004421;28;20033;-72
2023/01/28 10:52:30;;;;;;;237.43;217.57;;;;;;;1.75;58.86;103049.88;4986804;28;20128;-71
2023/01/28 10:55:04;;;;;;;232.30;212.68;;;;;;;1.76;59.99;103035.69;4993557;28;20415;-71
2023/01/28 10:57:33;;;;;;;236.20;216.55;;;;;;;1.89;59.17;103036.91;5022056;28;20037;-72
2023/01/28 11:00:23;;;;;;;234.68;215.00;;;;;;;1.91;58.54;103023.56;5020008;28;20122;-72
2023/01/28 11:02:49;;;;;;;234.20;214.27;;;;;;;1.87;58.84;103009.00;5007815;28;20140;-72
2023/01/28 11:05:19;;;;;;;238.50;219.05;;;;;;;1.98;59.61;103006.09;5010862;28;20033;-70
2023/01/28 11:07:49;;;;;;;239.07;219.93;;;;;;;1.97;59.30;103006.25;5015591;28;20486;-73
2023/01/28 11:10:28;;;;;;;237.88;218.52;;;;;;;1.70;60.33;103009.91;4988956;28;20508;-72
2023/01/28 11:12:55;;;;;;;220.48;200.88;;;;;;;1.85;60.49;102993.31;5020428;28;20142;-73
2023/01/28 11:15:21;;;;;;;239.93;220.75;;;;;;;1.98;59.79;102997.34;5018912;28;20033;-71
2023/01/28 11:17:54;;;;;;;239.55;220.15;;;;;;;1.92;60.25;102982.94;5005156;28;20622;-72
2023/01/28 11:20:24;;;;;;;223.55;203.68;;;;;;;2.21;59.24;102987.84;5002093;28;20098;-72
2023/01/28 11:22:50;;;;;;;;;;;;;;;2.25;57.82;102996.31;5017383;28;20083;-72
2023/01/28 11:25:26;;;;;;;226.60;206.82;;;;;;;1.83;59.73;102999.72;5037174;28;19919;-73
2023/01/28 11:27:53;;;;;;;227.80;207.82;;;;;;;2.07;58.13;102984.00;5012724;28;20643;-72
2023/01/28 11:30:25;;;;;;;239.15;219.95;;;;;;;1.75;61.14;102971.44;5018260;28;20112;-72
2023/01/28 11:33:12;;;;;;;238.27;219.25;;;;;;;1.89;60.05;102962.94;4988134;28;20033;-72
2023/01/28 11:35:38;;;;;;;220.60;200.77;;;;;;;2.27;59.03;102959.97;5007810;28;20037;-71
2023/01/28 11:38:17;;;;;;;237.63;218.63;;;;;;;2.27;58.45;102939.63;5014249;28;20106;-72
2023/01/28 11:40:53;;;;;;;219.10;199.48;;;;;;;2.41;58.55;102936.34;5023099;28;20025;-72
2023/01/28 11:43:24;;;;;;;218.43;198.75;;;;;;;2.53;58.16;102965.97;5006370;28;20573;-71
2023/01/28 11:46:12;;;;;;;217.80;198.30;;;;;;;2.33;59.31;102967.25;5008826;28;20042;-71